Time;durP1;ratioP1;P1;durP2;ratioP2;P2;SDS_P1;SDS_P2;PMS_P1;PMS_P2;Temp;Humidity;BMP_temperature;BMP_pressure;BME280_temperature;BME280_humidity;BME280_pressure;Samples;Min_cycle;Max_cycle;Signal;HPM_P1;HPM_P2
2023/02/11 07:45:38;;;;;;;4.38;3.20;;;4.80;99.90;;;;;;5164146;27;20377;-84
2023/02/11 08:13:07;;;;;;;4.00;3.38;;;5.00;99.90;;;;;;5987763;22;20454;-82
2023/02/11 08:15:33;;;;;;;4.63;3.88;;;5.10;99.90;;;;;;5081686;28;20031;-84
2023/02/11 08:18:12;;;;;;;4.93;3.65;;;5.20;99.90;;;;;;5080866;28;20434;-82
2023/02/11 08:24:25;;;;;;;4.30;3.63;;;5.20;99.90;;;;;;5082371;28;20130;-84
2023/02/11 08:26:54;;;;;;;4.10;3.30;;;5.20;99.90;;;;;;5078599;28;20023;-81
2023/02/11 08:29:47;;;;;;;4.20;3.67;;;5.30;99.90;;;;;;5082233;28;20028;-84
2023/02/11 08:32:13;;;;;;;4.90;4.00;;;5.30;99.90;;;;;;5087959;28;20389;-82
2023/02/11 08:34:39;;;;;;;6.20;4.75;;;5.30;99.90;;;;;;5078512;28;20089;-80
2023/02/11 08:37:05;;;;;;;5.85;4.15;;;5.10;99.90;;;;;;5076419;28;20128;-82
2023/02/11 08:42:52;;;;;;;4.07;3.55;;;4.90;99.90;;;;;;5095432;28;20545;-79
2023/02/11 08:45:21;;;;;;;5.07;3.80;;;5.00;99.90;;;;;;5078434;28;20104;-82
2023/02/11 08:48:08;;;;;;;4.47;3.85;;;5.10;99.90;;;;;;5099357;28;20017;-82
2023/02/11 08:50:37;;;;;;;4.30;3.55;;;5.20;99.90;;;;;;5080387;28;20020;-71
2023/02/11 08:53:03;;;;;;;4.53;3.70;;;5.30;99.90;;;;;;5081798;28;20013;-75
2023/02/11 08:55:29;;;;;;;4.45;3.72;;;5.30;99.90;;;;;;5095953;28;20043;-75
2023/02/11 08:57:55;;;;;;;4.47;3.92;;;5.50;99.90;;;;;;5085098;28;20883;-73
2023/02/11 09:00:21;;;;;;;5.80;4.35;;;5.50;99.90;;;;;;5067103;28;20032;-76
2023/02/11 09:02:47;;;;;;;4.43;3.60;;;5.70;99.90;;;;;;5069937;28;20020;-74
2023/02/11 09:05:13;;;;;;;4.85;3.75;;;5.70;99.90;;;;;;5076764;28;20040;-74
2023/02/11 09:07:38;;;;;;;6.30;3.97;;;5.80;99.90;;;;;;5068011;28;20488;-74
2023/02/11 09:10:05;;;;;;;5.90;4.60;;;5.80;99.90;;;;;;5088507;28;20396;-73
2023/02/11 09:12:31;;;;;;;5.30;4.53;;;5.80;99.90;;;;;;5072900;28;20012;-75
2023/02/11 09:14:57;;;;;;;6.07;4.30;;;5.90;99.90;;;;;;5042116;28;20052;-73
2023/02/11 09:17:23;;;;;;;6.00;4.38;;;5.90;99.90;;;;;;5078982;28;20108;-74
2023/02/11 09:19:48;;;;;;;6.18;4.50;;;5.90;99.90;;;;;;5086697;28;20060;-73
2023/02/11 09:22:14;;;;;;;5.75;4.25;;;5.90;99.90;;;;;;5089535;28;20040;-69
2023/02/11 09:24:40;;;;;;;7.05;5.15;;;5.90;99.90;;;;;;5070826;28;20024;-73
2023/02/11 09:27:05;;;;;;;6.20;4.90;;;5.90;99.90;;;;;;5068916;28;20381;-77
2023/02/11 09:29:31;;;;;;;5.20;4.38;;;5.80;99.90;;;;;;5095981;28;20458;-76
2023/02/11 09:31:57;;;;;;;5.93;4.88;;;5.70;99.90;;;;;;5085904;28;20401;-77
2023/02/11 09:34:22;;;;;;;5.93;4.28;;;5.70;99.90;;;;;;5069956;28;20066;-74
2023/02/11 09:36:48;;;;;;;6.32;4.60;;;5.80;99.90;;;;;;5067291;28;20436;-76
2023/02/11 09:39:18;;;;;;;6.15;4.60;;;5.90;99.90;;;;;;5084608;28;20039;-76
2023/02/11 09:41:59;;;;;;;6.95;4.72;;;6.10;99.90;;;;;;5077616;28;20020;-77
2023/02/11 09:44:28;;;;;;;5.55;4.50;;;6.30;99.90;;;;;;5066338;28;20082;-77
2023/02/11 09:47:15;;;;;;;7.10;4.93;;;6.40;99.90;;;;;;5087298;28;20024;-77
2023/02/11 09:49:44;;;;;;;5.47;4.63;;;6.40;99.90;;;;;;5065483;28;20036;-76
2023/02/11 09:52:29;;;;;;;7.38;4.70;;;6.40;99.90;;;;;;5085439;28;20035;-77
2023/02/11 09:54:58;;;;;;;5.72;4.43;;;6.40;99.90;;;;;;5084891;28;20044;-73
2023/02/11 09:57:33;;;;;;;7.65;5.68;;;6.40;99.90;;;;;;5077800;28;20112;-76
2023/02/11 10:00:00;;;;;;;6.47;5.18;;;6.30;99.90;;;;;;5077765;28;20055;-74
2023/02/11 10:02:30;;;;;;;7.40;5.50;;;6.20;99.90;;;;;;5077708;28;20047;-76
2023/02/11 10:05:14;;;;;;;7.80;6.20;;;6.10;99.90;;;;;;5082080;28;20115;-74
2023/02/11 10:08:00;;;;;;;;;;;6.10;99.90;;;;;;5068638;28;20026;-71
2023/02/11 10:10:35;;;;;;;5.07;3.88;;;6.10;99.90;;;;;;5042517;28;19931;-74
2023/02/11 10:13:14;;;;;;;4.55;3.83;;;6.20;99.90;;;;;;5069613;28;20150;-78
2023/02/11 10:15:40;;;;;;;4.72;3.55;;;6.40;99.90;;;;;;5077785;28;20025;-75
2023/02/11 10:18:18;;;;;;;6.30;4.25;;;6.40;99.90;;;;;;5078378;28;20028;-74
2023/02/11 10:21:02;;;;;;;5.30;4.47;;;6.50;99.90;;;;;;5058256;28;20033;-75
2023/02/11 10:23:38;;;;;;;7.95;5.22;;;6.60;99.90;;;;;;5077011;28;20028;-71
2023/02/11 10:26:14;;;;;;;6.35;4.90;;;6.60;99.90;;;;;;5077494;28;20020;-73
2023/02/11 10:28:45;;;;;;;6.40;4.53;;;6.60;99.90;;;;;;5077418;28;20542;-77
2023/02/11 10:31:26;;;;;;;6.47;4.80;;;6.60;99.90;;;;;;5076545;28;20027;-73
2023/02/11 10:34:15;;;;;;;6.13;4.35;;;6.80;99.90;;;;;;5057358;28;20044;-73
2023/02/11 10:36:43;;;;;;;6.03;4.63;;;6.80;99.90;;;;;;5077169;28;20040;-74
2023/02/11 10:39:18;;;;;;;6.05;4.80;;;6.80;99.90;;;;;;5078023;28;20056;-74
2023/02/11 10:42:01;;;;;;;7.47;5.07;;;6.80;99.90;;;;;;5059939;28;20021;-71
2023/02/11 10:44:37;;;;;;;6.50;4.88;;;6.90;99.90;;;;;;5077719;28;20027;-71
2023/02/11 10:47:11;;;;;;;6.38;4.93;;;7.00;99.90;;;;;;5077002;28;20029;-71
2023/02/11 10:49:41;;;;;;;6.10;4.63;;;6.90;99.90;;;;;;5077816;28;20027;-71
2023/02/11 10:52:18;;;;;;;6.55;5.35;;;6.90;99.90;;;;;;5077591;28;20016;-71
2023/02/11 10:54:58;;;;;;;7.75;5.65;;;7.00;99.90;;;;;;5083913;28;20028;-71
2023/02/11 10:57:32;;;;;;;8.10;5.45;;;7.00;99.90;;;;;;5082006;28;20020;-71
2023/02/11 11:00:18;;;;;;;8.15;6.00;;;6.90;99.90;;;;;;5085005;28;20054;-71
2023/02/11 11:02:51;;;;;;;8.90;6.07;;;6.90;99.90;;;;;;5081944;28;20051;-71
2023/02/11 11:05:19;;;;;;;9.73;6.45;;;7.00;99.90;;;;;;5082721;28;20062;-71
2023/02/11 11:07:58;;;;;;;8.95;6.47;;;7.00;99.90;;;;;;5084348;28;20019;-71
2023/02/11 11:10:42;;;;;;;8.27;6.20;;;7.10;99.90;;;;;;5087252;28;20027;-71
2023/02/11 11:13:24;;;;;;;10.93;7.40;;;7.20;99.90;;;;;;5085703;28;20044;-71
2023/02/11 11:16:11;;;;;;;9.02;6.63;;;7.20;99.90;;;;;;5085289;28;20025;-71
2023/02/11 11:18:38;;;;;;;9.57;6.63;;;7.30;99.90;;;;;;5061072;28;20021;-71
2023/02/11 11:21:10;;;;;;;8.45;6.82;;;7.40;99.90;;;;;;5064832;28;20483;-71
2023/02/11 11:23:36;;;;;;;9.30;6.57;;;7.40;99.90;;;;;;5048187;28;20107;-71
2023/02/11 11:26:15;;;;;;;9.23;6.47;;;7.50;99.90;;;;;;5065663;28;20027;-71
2023/02/11 11:29:01;;;;;;;9.73;6.78;;;7.60;99.90;;;;;;5046553;28;20013;-71
2023/02/11 11:31:46;;;;;;;10.35;7.28;;;7.70;99.90;;;;;;5050863;28;20025;-71
2023/02/11 11:34:36;;;;;;;12.35;8.25;;;7.80;99.90;;;;;;5054836;28;20051;-71
2023/02/11 11:37:23;;;;;;;9.52;7.28;;;7.80;99.90;;;;;;5033745;28;20037;-71
2023/02/11 11:40:01;;;;;;;8.52;6.53;;;7.90;99.90;;;;;;5062279;28;20115;-71
2023/02/11 11:42:28;;;;;;;8.68;6.88;;;8.00;99.90;;;;;;5042253;28;20025;-71
2023/02/11 11:44:57;;;;;;;9.48;7.20;;;8.10;99.90;;;;;;5034636;28;20032;-71
2023/02/11 11:47:32;;;;;;;10.77;8.15;;;8.10;99.90;;;;;;5031729;28;20029;-71
2023/02/11 11:50:35;;;;;;;10.35;7.57;;;8.20;99.90;;;;;;5058079;28;20020;-70
2023/02/11 11:53:04;;;;;;;8.05;6.43;;;8.30;99.90;;;;;;5057846;28;20490;-70
2023/02/11 11:55:37;;;;;;;9.18;7.10;;;8.40;99.90;;;;;;5060761;28;20063;-70
2023/02/11 11:58:04;;;;;;;8.63;6.47;;;8.50;99.90;;;;;;5041119;28;20067;-70
2023/02/11 12:00:40;;;;;;;8.75;6.13;;;8.50;99.90;;;;;;5062397;28;20032;-71
2023/02/11 12:03:31;;;;;;;7.38;6.15;;;8.50;99.90;;;;;;5045640;28;20029;-70
2023/02/11 12:06:32;;;;;;;7.40;5.93;;;8.50;99.90;;;;;;5060337;28;20028;-71
2023/02/11 12:09:29;;;;;;;8.43;5.78;;;8.60;99.90;;;;;;4946550;28;20027;-75
2023/02/11 12:12:17;;;;;;;8.68;5.95;;;8.60;99.90;;;;;;5052873;28;20630;-71
2023/02/11 12:14:55;;;;;;;8.18;5.72;;;8.70;99.90;;;;;;5062479;28;20073;-73
2023/02/11 12:17:33;;;;;;;8.43;6.25;;;8.70;99.90;;;;;;5065407;28;20037;-72
2023/02/11 12:20:16;;;;;;;7.32;5.30;;;8.80;99.90;;;;;;5045293;28;20032;-69
2023/02/11 12:23:00;;;;;;;8.63;6.18;;;8.90;99.90;;;;;;5043887;28;20444;-68
2023/02/11 12:25:44;;;;;;;;;;;9.10;99.90;;;;;;5053433;28;20032;-69
2023/02/11 12:28:57;;;;;;;7.32;4.97;;;9.20;99.90;;;;;;5042858;28;20007;-69
2023/02/11 12:31:25;;;;;;;8.10;5.13;;;9.20;99.90;;;;;;5028307;28;20033;-69
2023/02/11 12:34:19;;;;;;;7.47;5.65;;;9.20;99.90;;;;;;5065858;28;20076;-70
2023/02/11 12:37:15;;;;;;;8.52;6.10;;;9.30;99.90;;;;;;5054883;28;20501;-69
2023/02/11 12:39:49;;;;;;;7.88;4.88;;;9.30;99.90;;;;;;5027644;28;20041;-69
2023/02/11 12:45:11;;;;;;;6.60;5.18;;;9.50;99.90;;;;;;5039843;28;20078;-69
2023/02/11 12:48:11;;;;;;;6.63;4.53;;;9.60;99.90;;;;;;5044940;28;20104;-69
2023/02/11 12:51:00;;;;;;;6.65;4.45;;;9.70;99.90;;;;;;5055938;28;20055;-68
2023/02/11 12:53:40;;;;;;;5.95;4.30;;;9.80;99.90;;;;;;5070173;28;20028;-69
2023/02/11 12:56:23;;;;;;;7.50;5.03;;;9.90;99.90;;;;;;5044884;28;20071;-67
2023/02/11 12:58:54;;;;;;;5.38;4.47;;;10.10;99.90;;;;;;5041702;28;20025;-69
2023/02/11 13:01:25;;;;;;;7.55;4.88;;;10.20;99.90;;;;;;5053278;28;20082;-67
2023/02/11 13:03:51;;;;;;;5.88;4.28;;;10.30;99.90;;;;;;5048805;28;20064;-69
2023/02/11 13:06:22;;;;;;;5.40;4.20;;;10.30;99.90;;;;;;5054585;28;20409;-71
2023/02/11 13:08:50;;;;;;;6.40;4.63;;;10.40;99.90;;;;;;5065979;28;20566;-67
2023/02/11 13:11:38;;;;;;;5.90;4.38;;;10.50;99.90;;;;;;5063174;28;20029;-68
2023/02/11 13:14:31;;;;;;;5.60;4.65;;;10.40;99.90;;;;;;5067526;28;20048;-67
2023/02/11 13:16:57;;;;;;;5.75;4.20;;;10.40;99.90;;;;;;5049955;28;20048;-71
2023/02/11 13:19:48;;;;;;;4.80;4.13;;;10.30;99.90;;;;;;5060604;28;20056;-70
2023/02/11 13:22:19;;;;;;;5.13;3.83;;;10.30;99.90;;;;;;5068816;28;20163;-71
2023/02/11 13:25:01;;;;;;;5.05;4.25;;;10.30;99.90;;;;;;5047452;28;20021;-73
2023/02/11 13:28:24;;;;;;;5.03;3.95;;;10.20;99.90;;;;;;5062076;28;20035;-74
2023/02/11 13:31:00;;;;;;;4.22;3.20;;;10.20;99.90;;;;;;4978944;28;20488;-70
2023/02/11 13:33:33;;;;;;;4.63;3.70;;;10.20;99.90;;;;;;5057978;28;20033;-72
2023/02/11 13:35:58;;;;;;;4.47;3.40;;;10.20;99.90;;;;;;5045811;28;20028;-74
2023/02/11 13:38:29;;;;;;;5.40;4.05;;;10.10;99.90;;;;;;5058313;28;20033;-72
2023/02/11 13:41:20;;;;;;;5.95;4.10;;;10.10;99.90;;;;;;5047558;28;20016;-74
2023/02/11 13:43:58;;;;;;;4.88;3.70;;;10.10;99.90;;;;;;5068545;28;20028;-76
2023/02/11 13:46:26;;;;;;;4.50;3.22;;;10.20;99.90;;;;;;5067630;28;20028;-73
2023/02/11 13:48:53;;;;;;;4.45;3.47;;;10.20;99.90;;;;;;5066754;28;20025;-76
2023/02/11 13:51:40;;;;;;;5.43;4.05;;;10.20;99.90;;;;;;5065586;28;20017;-73
2023/02/11 13:54:16;;;;;;;6.22;4.30;;;10.20;99.90;;;;;;5065518;28;20098;-72
2023/02/11 13:56:43;;;;;;;5.60;3.97;;;10.20;99.90;;;;;;5050148;28;20020;-72
2023/02/11 13:59:26;;;;;;;6.15;4.22;;;10.30;99.90;;;;;;5060718;28;20031;-72
2023/02/11 14:10:44;;;;;;;4.38;2.78;;;10.30;99.90;;;;;;5062725;28;20391;-74
2023/02/11 14:13:29;;;;;;;3.67;2.70;;;10.30;99.90;;;;;;5038281;28;20053;-75
2023/02/11 14:16:21;;;;;;;4.20;3.28;;;10.40;99.90;;;;;;5057956;28;20009;-74
2023/02/11 14:18:47;;;;;;;6.22;3.92;;;10.40;99.90;;;;;;5045869;28;20027;-73
2023/02/11 14:21:16;;;;;;;4.93;3.70;;;10.50;99.90;;;;;;5056765;28;20017;-73
2023/02/11 14:23:42;;;;;;;5.13;3.33;;;10.40;99.90;;;;;;5060814;28;20116;-71
2023/02/11 14:26:20;;;;;;;4.47;3.45;;;10.40;99.90;;;;;;5070003;28;20019;-72
2023/02/11 14:29:12;;;;;;;4.90;3.47;;;10.40;99.90;;;;;;5053483;28;20058;-70
2023/02/11 14:32:04;;;;;;;4.53;3.05;;;10.50;99.90;;;;;;5051035;28;20022;-70
2023/02/11 14:34:43;;;;;;;3.80;3.10;;;10.50;99.90;;;;;;5057026;28;20040;-73
2023/02/11 14:37:26;;;;;;;5.15;3.30;;;10.50;99.90;;;;;;5035359;28;20055;-73
2023/02/11 14:40:13;;;;;;;5.32;3.80;;;10.50;99.90;;;;;;5032412;28;20033;-75
2023/02/11 14:42:39;;;;;;;3.95;3.55;;;10.50;99.90;;;;;;5051336;28;20055;-73
2023/02/11 14:45:14;;;;;;;4.57;3.65;;;10.50;99.90;;;;;;5051358;28;20489;-74
2023/02/11 14:47:45;;;;;;;5.03;4.03;;;10.40;99.90;;;;;;5037907;28;20024;-77
2023/02/11 14:50:25;;;;;;;4.80;3.25;;;10.50;99.90;;;;;;5037848;28;20068;-73
2023/02/11 14:52:52;;;;;;;4.60;3.67;;;10.50;99.90;;;;;;5052302;28;20100;-78
2023/02/11 14:55:36;;;;;;;4.18;3.22;;;10.50;99.90;;;;;;5055608;28;20397;-85
2023/02/11 14:58:11;;;;;;;6.20;3.80;;;10.50;99.90;;;;;;5057959;28;20032;-79
2023/02/11 15:00:45;;;;;;;5.68;3.85;;;10.60;99.90;;;;;;5037508;28;20029;-75
2023/02/11 15:03:34;;;;;;;4.82;3.75;;;10.50;99.90;;;;;;5056804;28;20031;-76
2023/02/11 15:06:11;;;;;;;5.38;3.80;;;10.50;99.90;;;;;;5039542;28;20020;-77
2023/02/11 15:08:44;;;;;;;5.35;4.03;;;10.60;99.90;;;;;;5048154;28;20025;-76
2023/02/11 15:11:14;;;;;;;5.68;3.85;;;10.50;99.90;;;;;;5033862;28;20024;-76
2023/02/11 15:13:46;;;;;;;7.35;4.05;;;10.50;99.90;;;;;;5051477;28;20049;-77
2023/02/11 15:16:17;;;;;;;4.25;3.42;;;10.60;99.90;;;;;;5032136;28;20079;-77
2023/02/11 15:18:48;;;;;;;4.38;3.33;;;10.60;99.90;;;;;;5030240;28;20017;-76
2023/02/11 15:21:24;;;;;;;4.30;3.10;;;10.60;99.90;;;;;;5052149;28;20036;-76
2023/02/11 15:24:00;;;;;;;3.55;3.15;;;10.60;99.90;;;;;;5048343;28;20028;-76
2023/02/11 15:26:26;;;;;;;4.47;2.95;;;10.60;99.90;;;;;;5049286;28;20025;-76
2023/02/11 15:28:52;;;;;;;4.75;3.05;;;10.60;99.90;;;;;;5035920;28;20047;-76
2023/02/11 15:31:22;;;;;;;4.30;2.72;;;10.60;99.90;;;;;;5046650;28;20470;-76
2023/02/11 15:33:48;;;;;;;3.30;2.60;;;10.60;99.90;;;;;;5047651;28;20048;-76
2023/02/11 15:36:15;;;;;;;3.65;2.95;;;10.60;99.90;;;;;;5037451;28;20040;-76
2023/02/11 15:38:41;;;;;;;3.72;2.28;;;10.60;99.90;;;;;;5044726;28;20017;-80
2023/02/11 15:41:07;;;;;;;4.13;2.92;;;10.60;99.90;;;;;;5050404;28;20029;-79
2023/02/11 15:43:41;;;;;;;3.17;2.55;;;10.60;99.90;;;;;;5047711;28;20037;-79
2023/02/11 15:46:10;;;;;;;3.65;3.00;;;10.60;99.90;;;;;;5048422;28;20041;-79
2023/02/11 15:48:40;;;;;;;4.00;3.15;;;10.60;99.90;;;;;;5033468;28;20437;-79
2023/02/11 15:51:21;;;;;;;4.18;3.20;;;10.60;99.90;;;;;;5054334;28;20032;-79
2023/02/11 15:53:57;;;;;;;5.35;3.17;;;10.60;99.90;;;;;;5038149;28;20048;-77
2023/02/11 15:56:31;;;;;;;3.83;2.72;;;10.60;99.90;;;;;;5030804;28;20115;-75
2023/02/11 15:58:59;;;;;;;6.28;3.67;;;10.70;99.90;;;;;;5056895;28;20021;-76
2023/02/11 16:01:31;;;;;;;3.67;3.00;;;10.70;99.90;;;;;;5038262;28;20029;-75
2023/02/11 16:03:57;;;;;;;4.10;3.05;;;10.70;99.90;;;;;;5056711;28;20029;-77
2023/02/11 16:06:39;;;;;;;4.50;3.60;;;10.80;99.90;;;;;;5058918;28;20032;-76
2023/02/11 16:09:07;;;;;;;4.72;3.47;;;10.80;99.90;;;;;;5043979;28;20020;-74
2023/02/11 16:11:37;;;;;;;5.15;3.05;;;10.80;99.90;;;;;;5060509;28;20112;-73
2023/02/11 16:14:31;;;;;;;4.60;3.25;;;10.80;99.90;;;;;;5053775;28;20088;-72
2023/02/11 16:17:10;;;;;;;3.28;2.67;;;10.80;99.90;;;;;;5040024;28;20037;-75
2023/02/11 16:19:45;;;;;;;4.18;2.80;;;10.80;99.90;;;;;;5046971;28;20100;-76
2023/02/11 16:22:17;;;;;;;3.28;2.47;;;10.90;99.90;;;;;;5041053;28;20030;-74
2023/02/11 16:24:46;;;;;;;3.97;2.90;;;10.80;99.90;;;;;;5022526;28;20108;-72
2023/02/11 16:27:26;;;;;;;3.17;2.88;;;10.80;99.90;;;;;;5042078;28;20112;-72
2023/02/11 16:29:52;;;;;;;3.83;2.92;;;10.80;99.90;;;;;;5060326;28;20041;-71
2023/02/11 16:32:22;;;;;;;3.45;2.60;;;10.90;99.90;;;;;;5041270;28;20029;-69
2023/02/11 16:34:48;;;;;;;3.70;2.45;;;10.90;99.90;;;;;;5060158;28;20025;-70
2023/02/11 16:37:14;;;;;;;4.05;2.28;;;10.90;99.90;;;;;;5044950;28;20494;-70
2023/02/11 16:39:40;;;;;;;2.80;2.20;;;11.00;99.90;;;;;;5058854;28;20036;-79
2023/02/11 16:42:06;;;;;;;2.88;2.10;;;11.00;99.90;;;;;;5042358;28;20038;-79
2023/02/11 16:44:33;;;;;;;2.83;2.33;;;11.00;99.90;;;;;;5042050;28;20501;-70
2023/02/11 16:47:02;;;;;;;2.83;2.25;;;11.10;99.90;;;;;;5053090;28;20040;-70
2023/02/11 16:49:35;;;;;;;3.33;2.10;;;11.10;99.90;;;;;;5044867;28;20054;-71
2023/02/11 16:52:06;;;;;;;3.10;2.17;;;11.10;99.90;;;;;;5038300;28;20383;-70
2023/02/11 16:54:31;;;;;;;4.30;2.53;;;11.00;99.90;;;;;;5058592;28;20044;-73
2023/02/11 16:56:57;;;;;;;3.58;2.08;;;11.00;99.90;;;;;;5059818;28;20025;-71
2023/02/11 16:59:23;;;;;;;3.17;2.10;;;11.00;99.90;;;;;;5059553;28;20473;-69
2023/02/11 17:01:51;;;;;;;2.72;2.08;;;11.10;99.90;;;;;;5041382;28;20025;-71
2023/02/11 17:04:29;;;;;;;3.63;1.98;;;11.00;99.90;;;;;;5041390;28;20489;-68
2023/02/11 17:06:54;;;;;;;2.50;1.63;;;10.90;99.90;;;;;;5041456;28;20024;-73
2023/02/11 17:09:23;;;;;;;2.92;2.22;;;10.80;99.90;;;;;;5059535;28;20043;-72
2023/02/11 17:11:49;;;;;;;3.20;2.50;;;10.70;99.90;;;;;;5059626;28;20032;-74
2023/02/11 17:14:16;;;;;;;3.20;2.00;;;10.60;99.90;;;;;;5061939;28;20044;-73
2023/02/11 17:16:42;;;;;;;3.00;2.33;;;10.50;99.90;;;;;;5066643;28;20024;-74
2023/02/11 17:19:13;;;;;;;3.10;2.20;;;10.40;99.90;;;;;;5046428;28;20025;-74
2023/02/11 17:21:43;;;;;;;2.85;2.00;;;10.40;99.90;;;;;;5047268;28;20029;-74
2023/02/11 17:24:09;;;;;;;3.60;2.30;;;10.40;99.90;;;;;;5066020;28;20021;-73
2023/02/11 17:26:36;;;;;;;2.80;2.20;;;10.30;99.90;;;;;;5048926;28;20067;-73
2023/02/11 17:29:10;;;;;;;3.88;2.05;;;10.30;99.90;;;;;;5058856;28;20024;-72
2023/02/11 17:31:38;;;;;;;2.92;1.95;;;10.20;99.90;;;;;;5063702;28;20493;-72
2023/02/11 17:34:04;;;;;;;2.90;2.00;;;10.20;99.90;;;;;;5065045;28;20031;-72
2023/02/11 17:36:31;;;;;;;2.70;2.17;;;10.10;99.90;;;;;;5062756;28;20424;-73
2023/02/11 17:38:57;;;;;;;2.42;1.98;;;10.10;99.90;;;;;;5052919;28;20031;-73
2023/02/11 17:41:23;;;;;;;2.60;1.75;;;10.00;99.90;;;;;;5063223;28;20096;-72
2023/02/11 17:43:49;;;;;;;2.97;1.65;;;10.00;99.90;;;;;;5063209;28;20464;-73
2023/02/11 17:46:15;;;;;;;3.00;2.00;;;9.90;99.90;;;;;;5063354;28;20469;-72
2023/02/11 17:48:40;;;;;;;2.35;1.90;;;9.90;99.90;;;;;;5042034;28;20035;-73
2023/02/11 17:51:24;;;;;;;2.10;1.60;;;9.90;99.90;;;;;;5063909;28;20510;-75
2023/02/11 17:53:50;;;;;;;2.30;1.80;;;9.80;99.90;;;;;;5066603;28;20021;-75
2023/02/11 17:56:16;;;;;;;2.33;1.67;;;9.80;99.90;;;;;;5049282;28;20028;-76
2023/02/11 17:58:42;;;;;;;2.05;1.58;;;9.80;99.90;;;;;;5049640;28;20020;-76
2023/02/11 18:01:07;;;;;;;2.40;1.60;;;9.70;99.90;;;;;;5047882;28;20050;-76
2023/02/11 18:03:33;;;;;;;2.25;1.73;;;9.70;99.90;;;;;;5063069;28;20021;-75
2023/02/11 18:06:04;;;;;;;2.92;2.00;;;9.60;99.90;;;;;;5057639;28;20056;-77
2023/02/11 18:08:30;;;;;;;3.42;2.33;;;9.60;99.90;;;;;;5056263;28;20122;-75
2023/02/11 18:10:55;;;;;;;4.80;2.72;;;9.60;99.90;;;;;;5057739;28;20060;-74
2023/02/11 18:13:21;;;;;;;2.60;1.85;;;9.60;99.90;;;;;;5063164;28;20120;-73
2023/02/11 18:15:47;;;;;;;5.03;2.15;;;9.50;99.90;;;;;;5063823;28;20032;-75
2023/02/11 18:18:13;;;;;;;3.50;2.63;;;9.50;99.90;;;;;;5059162;28;20033;-77
2023/02/11 18:20:41;;;;;;;3.47;2.30;;;9.50;99.90;;;;;;5062089;28;20028;-76
2023/02/11 18:23:10;;;;;;;4.63;2.80;;;9.50;99.90;;;;;;5063577;28;20533;-76
2023/02/11 18:25:36;;;;;;;3.92;2.47;;;9.40;99.90;;;;;;5067616;28;20024;-76
2023/02/11 18:28:02;;;;;;;3.00;2.20;;;9.40;99.90;;;;;;5058665;28;20044;-76
2023/02/11 18:30:28;;;;;;;3.35;2.42;;;9.30;99.90;;;;;;5046628;28;20032;-75
2023/02/11 18:32:55;;;;;;;3.30;2.42;;;9.30;99.90;;;;;;5047401;28;20017;-75
2023/02/11 18:35:21;;;;;;;3.17;2.42;;;9.30;99.90;;;;;;5059222;28;20036;-74
2023/02/11 18:37:48;;;;;;;3.50;2.53;;;9.30;99.90;;;;;;5065467;28;20016;-74
2023/02/11 18:40:14;;;;;;;2.83;2.28;;;9.30;99.90;;;;;;5046006;28;20024;-74
2023/02/11 18:42:40;;;;;;;3.00;2.40;;;9.30;99.90;;;;;;5065814;28;20093;-74
2023/02/11 18:45:11;;;;;;;2.58;2.00;;;9.30;99.90;;;;;;5043967;28;20032;-75
2023/02/11 18:47:37;;;;;;;3.05;2.00;;;9.20;99.90;;;;;;5058280;28;20096;-75
2023/02/11 18:50:05;;;;;;;2.30;1.80;;;9.20;99.90;;;;;;5064658;28;20090;-75
2023/02/11 18:52:31;;;;;;;2.40;2.03;;;9.20;99.90;;;;;;5067233;28;20034;-75
2023/02/11 18:54:57;;;;;;;2.97;1.95;;;9.20;99.90;;;;;;5068296;28;20024;-76
2023/02/11 18:57:23;;;;;;;4.07;2.25;;;9.10;99.90;;;;;;5064373;28;20148;-75
2023/02/11 18:59:49;;;;;;;3.10;2.15;;;9.20;99.90;;;;;;5050926;28;20100;-76
2023/02/11 19:02:16;;;;;;;2.67;2.05;;;9.20;99.90;;;;;;5050665;28;20493;-76
2023/02/11 19:04:41;;;;;;;3.72;2.78;;;9.10;99.90;;;;;;5060131;28;20032;-75
2023/02/11 19:07:08;;;;;;;3.63;2.65;;;9.10;99.90;;;;;;5040917;28;20031;-79
2023/02/11 19:09:33;;;;;;;3.53;2.63;;;9.00;99.90;;;;;;5037564;28;20538;-81
2023/02/11 19:12:00;;;;;;;3.55;2.70;;;9.00;99.90;;;;;;5039080;28;20033;-81
2023/02/11 19:14:30;;;;;;;2.88;2.42;;;9.00;99.90;;;;;;5037664;28;20055;-85
2023/02/11 19:16:57;;;;;;;4.25;2.28;;;8.90;99.90;;;;;;5036184;28;20021;-83
2023/02/11 19:19:27;;;;;;;3.40;2.47;;;8.90;99.90;;;;;;5025576;28;20072;-85
2023/02/11 19:21:53;;;;;;;3.35;2.38;;;8.80;99.90;;;;;;5022957;28;20017;-84
2023/02/11 19:24:20;;;;;;;4.05;2.63;;;8.70;99.90;;;;;;5050005;28;20488;-83
2023/02/11 19:26:48;;;;;;;3.53;2.42;;;8.70;99.90;;;;;;5037950;28;20422;-79
2023/02/11 19:29:14;;;;;;;2.50;2.25;;;8.70;99.90;;;;;;5051194;28;20412;-80
2023/02/11 19:31:40;;;;;;;4.25;2.72;;;8.60;99.90;;;;;;5032854;28;20025;-81
2023/02/11 19:34:08;;;;;;;3.60;2.53;;;8.70;99.90;;;;;;5039809;28;20022;-79
2023/02/11 19:36:34;;;;;;;3.30;2.70;;;8.70;99.90;;;;;;5029168;28;20033;-78
2023/02/11 19:39:01;;;;;;;3.17;2.53;;;8.60;99.90;;;;;;5050303;28;20100;-78
2023/02/11 19:41:58;;;;;;;3.13;2.60;;;8.60;99.90;;;;;;5023491;28;20117;-82
2023/02/11 19:44:27;;;;;;;3.28;2.38;;;8.60;99.90;;;;;;5034805;28;20079;-81
2023/02/11 19:47:26;;;;;;;3.13;2.28;;;8.60;99.90;;;;;;5036927;28;20079;-82
2023/02/11 19:49:52;;;;;;;5.43;2.83;;;8.60;99.90;;;;;;5038674;28;20515;-81
2023/02/11 19:52:28;;;;;;;3.72;2.60;;;8.60;99.90;;;;;;5054487;28;20021;-86
2023/02/11 19:54:53;;;;;;;4.13;2.65;;;8.50;99.90;;;;;;5038190;28;20071;-84
2023/02/11 19:57:19;;;;;;;4.07;2.88;;;8.50;99.90;;;;;;5056828;28;20028;-81
2023/02/11 19:59:45;;;;;;;3.33;2.60;;;8.60;99.90;;;;;;5038637;28;20094;-79
2023/02/11 20:02:14;;;;;;;3.67;3.10;;;8.50;99.90;;;;;;5055808;28;20116;-84
2023/02/11 20:04:40;;;;;;;4.68;2.75;;;8.50;99.90;;;;;;5033955;28;20104;-81
2023/02/11 20:07:12;;;;;;;3.70;2.67;;;8.40;99.90;;;;;;5052734;28;20060;-80
2023/02/11 20:09:39;;;;;;;4.22;3.08;;;8.40;99.90;;;;;;5037076;28;20033;-83
2023/02/11 20:12:08;;;;;;;4.13;2.83;;;8.40;99.90;;;;;;5056160;28;20067;-83
2023/02/11 20:14:37;;;;;;;4.53;2.90;;;8.40;99.90;;;;;;5038467;28;20055;-83
2023/02/11 20:17:20;;;;;;;4.30;2.88;;;8.40;99.90;;;;;;5056274;28;20032;-81
2023/02/11 20:19:46;;;;;;;3.50;2.58;;;8.40;99.90;;;;;;5052082;28;20456;-80
2023/02/11 20:22:35;;;;;;;3.67;2.72;;;8.30;99.90;;;;;;5032979;28;20033;-83
2023/02/11 20:25:19;;;;;;;3.92;2.70;;;8.30;99.90;;;;;;5038231;28;20037;-83
2023/02/11 20:27:51;;;;;;;3.60;2.47;;;8.30;99.90;;;;;;5048446;28;20021;-81
2023/02/11 20:30:29;;;;;;;3.88;2.83;;;8.30;99.90;;;;;;5056221;28;20104;-85
2023/02/11 20:33:16;;;;;;;3.88;2.58;;;8.20;99.90;;;;;;5038658;28;20027;-85
2023/02/11 20:35:42;;;;;;;2.85;2.33;;;8.20;99.90;;;;;;5038915;28;20453;-82
2023/02/11 20:38:18;;;;;;;2.75;2.22;;;8.20;99.90;;;;;;5056346;28;20086;-87
2023/02/11 20:40:44;;;;;;;3.03;2.28;;;8.20;99.90;;;;;;5056663;28;20108;-79
2023/02/11 20:43:10;;;;;;;3.35;2.55;;;8.20;99.90;;;;;;5056275;28;20106;-79
2023/02/11 20:45:35;;;;;;;3.95;2.58;;;8.10;99.90;;;;;;5038120;28;20029;-82
2023/02/11 20:48:04;;;;;;;3.30;2.20;;;8.10;99.90;;;;;;5035236;28;20067;-83
2023/02/11 20:50:32;;;;;;;2.75;2.15;;;8.10;99.90;;;;;;5030304;28;20029;-83
2023/02/11 20:56:07;;;;;;;2.47;2.20;;;8.10;99.90;;;;;;5057907;28;20135;-81
2023/02/11 20:58:34;;;;;;;2.97;2.17;;;8.10;99.90;;;;;;5048282;28;20025;-80
2023/02/11 21:01:17;;;;;;;3.42;2.22;;;8.10;99.90;;;;;;5022187;28;20116;-82
2023/02/11 21:03:58;;;;;;;3.37;2.43;;;8.10;99.90;;;;;;5022083;28;20064;-85
2023/02/11 21:06:31;;;;;;;2.90;2.15;;;8.10;99.90;;;;;;5036471;28;20286;-83
2023/02/11 21:12:35;;;;;;;2.97;2.08;;;8.00;99.90;;;;;;4967623;28;20111;-80
2023/02/11 21:15:04;;;;;;;2.50;2.13;;;8.00;99.90;;;;;;5032678;28;20414;-78
2023/02/11 21:17:30;;;;;;;2.92;2.45;;;8.00;99.90;;;;;;5038111;28;20029;-78
2023/02/11 21:20:03;;;;;;;2.78;2.17;;;7.90;99.90;;;;;;5039198;28;20060;-84
2023/02/11 21:22:28;;;;;;;3.30;2.10;;;8.00;99.90;;;;;;5047387;28;20022;-79
2023/02/11 21:24:54;;;;;;;2.60;2.22;;;7.90;99.90;;;;;;5038010;28;20056;-80
2023/02/11 21:27:20;;;;;;;2.97;1.95;;;7.90;99.90;;;;;;5038505;28;20155;-78
2023/02/11 21:29:45;;;;;;;3.15;2.28;;;7.90;99.90;;;;;;5038170;28;20028;-76
2023/02/11 21:32:11;;;;;;;4.07;2.28;;;7.90;99.90;;;;;;5038681;28;20068;-81
2023/02/11 21:34:37;;;;;;;3.15;2.03;;;7.90;99.90;;;;;;5035991;28;20029;-77
2023/02/11 21:37:03;;;;;;;3.33;2.47;;;7.80;99.90;;;;;;5036115;28;20048;-76
2023/02/11 21:39:28;;;;;;;3.63;2.50;;;7.80;99.90;;;;;;5037077;28;20048;-78
2023/02/11 21:41:54;;;;;;;2.80;2.13;;;7.70;99.90;;;;;;5037692;28;20547;-79
2023/02/11 21:44:20;;;;;;;3.03;2.30;;;7.80;99.90;;;;;;5035826;28;20033;-76
2023/02/11 21:46:49;;;;;;;2.72;2.20;;;7.70;99.90;;;;;;5037020;28;20051;-80
2023/02/11 21:49:15;;;;;;;3.20;2.13;;;7.70;99.90;;;;;;5022322;28;20026;-78
2023/02/11 21:51:41;;;;;;;2.83;2.00;;;7.70;99.90;;;;;;5019731;28;20087;-81
2023/02/11 21:54:06;;;;;;;3.70;2.38;;;7.70;99.90;;;;;;5036267;28;20108;-79
2023/02/11 21:56:34;;;;;;;2.95;2.20;;;7.70;99.90;;;;;;5030006;28;20072;-78